KJHW

Chautauqua County / Jamestown Airport

Jamestown, New York, USA
KJHW 190535Z 1906/2006 22008KT P6SM SKC FM191500 22011G17KT P6SM FEW250 FM192300 21011KT P6SM BKN120 FM200100 21012G18KT P6SM BKN090 FM200300 22015G21KT P6SM OVC060 FM200500 22017KT P6SM OVC045
Issued Valid From Valid To
Oct-19 @ 05:35 UTC
(3 hours ago)
Oct-19 @ 06:00 UTC
(3 hours ago)
Oct-20 @ 06:00 UTC
(in 21 hours)
Oct-19 @ 06:00 to Oct-19 @ 15:00
KJHW 190535Z 1906/2006 22008KT P6SM SKC
Wind Visibility Clouds
220° at 8 knots Greater than 6 miles
  • Clear skies
From Oct-19 @ 15:00 to Oct-19 @ 23:00
FM191500 22011G17KT P6SM FEW250
Wind Visibility Clouds
220° at 11 knots
 Gusting to 17 knots
Greater than 6 miles
  • Few at 25,000' AGL
From Oct-19 @ 23:00 to Oct-20 @ 01:00
FM192300 21011KT P6SM BKN120
Wind Visibility Clouds
210° at 11 knots Greater than 6 miles
  • Broken at 12,000' AGL
From Oct-20 @ 01:00 to Oct-20 @ 03:00
FM200100 21012G18KT P6SM BKN090
Wind Visibility Clouds
210° at 12 knots
 Gusting to 18 knots
Greater than 6 miles
  • Broken at 9,000' AGL
From Oct-20 @ 03:00 to Oct-20 @ 05:00
FM200300 22015G21KT P6SM OVC060
Wind Visibility Clouds
220° at 15 knots
 Gusting to 21 knots
Greater than 6 miles
  • Overcast at 6,000' AGL
From Oct-20 @ 05:00 to Oct-20 @ 06:00
FM200500 22017KT P6SM OVC045
Wind Visibility Clouds
220° at 17 knots Greater than 6 miles
  • Overcast at 4,500' AGL
KJHW 190535Z 1906/2006 22008KT P6SM SKC FM191500 22011G17KT P6SM FEW250 FM192300 21011KT P6SM BKN120 FM200100 21012G18KT P6SM BKN090 FM200300 22015G21KT P6SM OVC060 FM200500 22017KT P6SM OVC045
Issued Oct-19 @ 05:35 UTC
(3 hours ago)
Valid From Oct-19 @ 06:00 UTC
(3 hours ago)
Valid To Oct-20 @ 06:00 UTC
(in 21 hours)
Oct-19 @ 06:00 - Oct-19 @ 15:00
Wind Visibility
220° at 8 knots Greater than 6 miles
Clouds
  • Clear skies
From Oct-19 @ 15:00 - Oct-19 @ 23:00
Wind Visibility
220° at 11 knots
 Gusting to 17 knots
Greater than 6 miles
Clouds
  • Few at 25,000' AGL
From Oct-19 @ 23:00 - Oct-20 @ 01:00
Wind Visibility
210° at 11 knots Greater than 6 miles
Clouds
  • Broken at 12,000' AGL
From Oct-20 @ 01:00 - Oct-20 @ 03:00
Wind Visibility
210° at 12 knots
 Gusting to 18 knots
Greater than 6 miles
Clouds
  • Broken at 9,000' AGL
From Oct-20 @ 03:00 - Oct-20 @ 05:00
Wind Visibility
220° at 15 knots
 Gusting to 21 knots
Greater than 6 miles
Clouds
  • Overcast at 6,000' AGL
From Oct-20 @ 05:00 - Oct-20 @ 06:00
Wind Visibility
220° at 17 knots Greater than 6 miles
Clouds
  • Overcast at 4,500' AGL